sensor_id;sensor_type;location;lat;lon;timestamp;P1;durP1;ratioP1;P2;durP2;ratioP2
62037;SDS011;47991;42.974;12.082;2023-03-17T00:01:07;6.50;;;2.50;;
62037;SDS011;47991;42.974;12.082;2023-03-17T00:03:35;4.10;;;1.70;;
62037;SDS011;47991;42.974;12.082;2023-03-17T00:06:04;4.30;;;1.90;;
62037;SDS011;47991;42.974;12.082;2023-03-17T00:08:36;3.80;;;2.00;;
62037;SDS011;47991;42.974;12.082;2023-03-17T00:11:02;5.20;;;2.10;;
62037;SDS011;47991;42.974;12.082;2023-03-17T00:13:28;4.80;;;1.90;;
62037;SDS011;47991;42.974;12.082;2023-03-17T00:15:59;5.50;;;2.10;;
62037;SDS011;47991;42.974;12.082;2023-03-17T00:18:28;4.70;;;2.00;;
62037;SDS011;47991;42.974;12.082;2023-03-17T00:20:56;6.90;;;2.30;;
62037;SDS011;47991;42.974;12.082;2023-03-17T00:23:23;4.90;;;2.00;;
62037;SDS011;47991;42.974;12.082;2023-03-17T00:25:50;5.60;;;1.80;;
62037;SDS011;47991;42.974;12.082;2023-03-17T00:30:47;4.70;;;1.90;;
62037;SDS011;47991;42.974;12.082;2023-03-17T00:33:17;4.20;;;1.80;;
62037;SDS011;47991;42.974;12.082;2023-03-17T00:35:44;5.10;;;1.80;;
62037;SDS011;47991;42.974;12.082;2023-03-17T00:38:20;6.20;;;1.90;;
62037;SDS011;47991;42.974;12.082;2023-03-17T00:40:49;5.10;;;1.90;;
62037;SDS011;47991;42.974;12.082;2023-03-17T00:43:16;5.80;;;2.20;;
62037;SDS011;47991;42.974;12.082;2023-03-17T00:45:43;5.30;;;1.60;;
62037;SDS011;47991;42.974;12.082;2023-03-17T00:48:14;6.30;;;2.10;;
62037;SDS011;47991;42.974;12.082;2023-03-17T00:50:46;4.70;;;1.80;;
62037;SDS011;47991;42.974;12.082;2023-03-17T00:53:15;3.90;;;1.60;;
62037;SDS011;47991;42.974;12.082;2023-03-17T00:55:43;5.20;;;2.10;;
62037;SDS011;47991;42.974;12.082;2023-03-17T00:58:23;5.40;;;1.80;;
62037;SDS011;47991;42.974;12.082;2023-03-17T01:00:52;6.70;;;1.90;;
62037;SDS011;47991;42.974;12.082;2023-03-17T01:03:18;4.20;;;1.90;;
62037;SDS011;47991;42.974;12.082;2023-03-17T01:05:45;4.40;;;1.80;;
62037;SDS011;47991;42.974;12.082;2023-03-17T01:08:12;6.10;;;1.70;;
62037;SDS011;47991;42.974;12.082;2023-03-17T01:10:39;5.60;;;1.80;;
62037;SDS011;47991;42.974;12.082;2023-03-17T01:13:07;2.70;;;1.50;;
62037;SDS011;47991;42.974;12.082;2023-03-17T01:15:36;5.00;;;1.90;;
62037;SDS011;47991;42.974;12.082;2023-03-17T01:18:10;4.70;;;1.50;;
62037;SDS011;47991;42.974;12.082;2023-03-17T01:20:38;3.50;;;1.60;;
62037;SDS011;47991;42.974;12.082;2023-03-17T01:23:04;5.70;;;1.70;;
62037;SDS011;47991;42.974;12.082;2023-03-17T01:25:31;4.70;;;1.90;;
62037;SDS011;47991;42.974;12.082;2023-03-17T01:27:58;5.10;;;1.60;;
62037;SDS011;47991;42.974;12.082;2023-03-17T01:30:26;2.50;;;1.20;;
62037;SDS011;47991;42.974;12.082;2023-03-17T01:32:57;4.30;;;1.60;;
62037;SDS011;47991;42.974;12.082;2023-03-17T01:35:25;3.50;;;1.60;;
62037;SDS011;47991;42.974;12.082;2023-03-17T01:37:54;3.30;;;1.30;;
62037;SDS011;47991;42.974;12.082;2023-03-17T01:40:26;4.30;;;1.70;;
62037;SDS011;47991;42.974;12.082;2023-03-17T01:43:01;5.30;;;1.80;;
62037;SDS011;47991;42.974;12.082;2023-03-17T01:56:55;2.10;;;1.20;;
62037;SDS011;47991;42.974;12.082;2023-03-17T01:59:27;3.80;;;1.60;;
62037;SDS011;47991;42.974;12.082;2023-03-17T02:02:00;5.40;;;1.50;;
62037;SDS011;47991;42.974;12.082;2023-03-17T02:04:29;4.30;;;1.40;;
62037;SDS011;47991;42.974;12.082;2023-03-17T02:06:57;3.30;;;1.10;;
62037;SDS011;47991;42.974;12.082;2023-03-17T02:09:24;3.20;;;1.30;;
62037;SDS011;47991;42.974;12.082;2023-03-17T02:11:53;4.00;;;1.50;;
62037;SDS011;47991;42.974;12.082;2023-03-17T02:14:20;5.50;;;1.50;;
62037;SDS011;47991;42.974;12.082;2023-03-17T02:16:46;2.70;;;1.40;;
62037;SDS011;47991;42.974;12.082;2023-03-17T02:19:15;3.70;;;1.30;;
62037;SDS011;47991;42.974;12.082;2023-03-17T02:21:42;7.30;;;1.80;;
62037;SDS011;47991;42.974;12.082;2023-03-17T02:24:29;4.10;;;1.60;;
62037;SDS011;47991;42.974;12.082;2023-03-17T02:27:02;3.00;;;1.30;;
62037;SDS011;47991;42.974;12.082;2023-03-17T02:29:32;2.50;;;1.40;;
62037;SDS011;47991;42.974;12.082;2023-03-17T02:32:00;2.80;;;1.50;;
62037;SDS011;47991;42.974;12.082;2023-03-17T02:34:28;2.80;;;1.30;;
62037;SDS011;47991;42.974;12.082;2023-03-17T02:36:54;5.70;;;1.40;;
62037;SDS011;47991;42.974;12.082;2023-03-17T02:39:20;3.30;;;1.30;;
62037;SDS011;47991;42.974;12.082;2023-03-17T02:41:47;3.60;;;1.40;;
62037;SDS011;47991;42.974;12.082;2023-03-17T02:44:13;3.90;;;1.40;;
62037;SDS011;47991;42.974;12.082;2023-03-17T02:46:39;2.80;;;1.40;;
62037;SDS011;47991;42.974;12.082;2023-03-17T02:49:06;3.00;;;1.20;;
62037;SDS011;47991;42.974;12.082;2023-03-17T02:51:33;2.30;;;1.20;;
62037;SDS011;47991;42.974;12.082;2023-03-17T02:53:59;3.30;;;1.40;;
62037;SDS011;47991;42.974;12.082;2023-03-17T02:56:25;2.50;;;1.10;;
62037;SDS011;47991;42.974;12.082;2023-03-17T02:58:51;2.30;;;1.20;;
62037;SDS011;47991;42.974;12.082;2023-03-17T03:01:17;2.30;;;1.30;;
62037;SDS011;47991;42.974;12.082;2023-03-17T03:03:45;2.80;;;1.40;;
62037;SDS011;47991;42.974;12.082;2023-03-17T03:06:12;3.50;;;1.40;;
62037;SDS011;47991;42.974;12.082;2023-03-17T03:08:38;3.80;;;1.30;;
62037;SDS011;47991;42.974;12.082;2023-03-17T03:11:04;2.50;;;1.30;;
62037;SDS011;47991;42.974;12.082;2023-03-17T03:13:31;3.30;;;1.40;;
62037;SDS011;47991;42.974;12.082;2023-03-17T03:15:57;3.50;;;1.30;;
62037;SDS011;47991;42.974;12.082;2023-03-17T03:18:23;2.30;;;1.20;;
62037;SDS011;47991;42.974;12.082;2023-03-17T03:20:49;3.80;;;1.30;;
62037;SDS011;47991;42.974;12.082;2023-03-17T03:23:16;5.00;;;1.40;;
62037;SDS011;47991;42.974;12.082;2023-03-17T03:25:42;4.80;;;1.50;;
62037;SDS011;47991;42.974;12.082;2023-03-17T03:28:08;3.90;;;1.20;;
62037;SDS011;47991;42.974;12.082;2023-03-17T03:30:35;2.50;;;1.40;;
62037;SDS011;47991;42.974;12.082;2023-03-17T03:33:02;2.10;;;1.10;;
62037;SDS011;47991;42.974;12.082;2023-03-17T03:35:29;2.30;;;1.20;;
62037;SDS011;47991;42.974;12.082;2023-03-17T03:37:55;3.40;;;1.30;;
62037;SDS011;47991;42.974;12.082;2023-03-17T03:40:22;3.60;;;1.40;;
62037;SDS011;47991;42.974;12.082;2023-03-17T03:42:50;5.80;;;1.50;;
62037;SDS011;47991;42.974;12.082;2023-03-17T03:45:16;3.80;;;1.30;;
62037;SDS011;47991;42.974;12.082;2023-03-17T03:47:42;2.60;;;1.30;;
62037;SDS011;47991;42.974;12.082;2023-03-17T03:50:09;3.30;;;1.60;;
62037;SDS011;47991;42.974;12.082;2023-03-17T03:52:36;3.90;;;1.40;;
62037;SDS011;47991;42.974;12.082;2023-03-17T03:55:02;2.80;;;1.30;;
62037;SDS011;47991;42.974;12.082;2023-03-17T03:57:29;2.60;;;1.30;;
62037;SDS011;47991;42.974;12.082;2023-03-17T03:59:55;3.00;;;1.40;;
62037;SDS011;47991;42.974;12.082;2023-03-17T04:02:22;4.10;;;1.20;;
62037;SDS011;47991;42.974;12.082;2023-03-17T04:04:48;2.30;;;1.10;;
62037;SDS011;47991;42.974;12.082;2023-03-17T04:07:14;2.70;;;1.20;;
62037;SDS011;47991;42.974;12.082;2023-03-17T04:09:41;2.80;;;1.10;;
62037;SDS011;47991;42.974;12.082;2023-03-17T04:12:07;3.00;;;1.30;;
62037;SDS011;47991;42.974;12.082;2023-03-17T04:14:33;2.80;;;1.20;;
62037;SDS011;47991;42.974;12.082;2023-03-17T04:17:00;4.20;;;1.30;;
62037;SDS011;47991;42.974;12.082;2023-03-17T04:19:26;3.60;;;1.40;;
62037;SDS011;47991;42.974;12.082;2023-03-17T04:21:52;2.00;;;1.00;;
62037;SDS011;47991;42.974;12.082;2023-03-17T04:24:18;3.70;;;1.20;;
62037;SDS011;47991;42.974;12.082;2023-03-17T04:26:46;5.30;;;1.40;;
62037;SDS011;47991;42.974;12.082;2023-03-17T04:29:12;3.90;;;1.40;;
62037;SDS011;47991;42.974;12.082;2023-03-17T04:31:40;5.10;;;1.90;;
62037;SDS011;47991;42.974;12.082;2023-03-17T04:34:09;3.70;;;1.20;;
62037;SDS011;47991;42.974;12.082;2023-03-17T04:36:39;3.00;;;1.60;;
62037;SDS011;47991;42.974;12.082;2023-03-17T04:39:07;2.10;;;1.20;;
62037;SDS011;47991;42.974;12.082;2023-03-17T04:41:33;2.20;;;1.30;;
62037;SDS011;47991;42.974;12.082;2023-03-17T04:44:00;2.70;;;1.30;;
62037;SDS011;47991;42.974;12.082;2023-03-17T04:46:27;2.90;;;1.20;;
62037;SDS011;47991;42.974;12.082;2023-03-17T04:48:53;3.40;;;1.30;;
62037;SDS011;47991;42.974;12.082;2023-03-17T04:51:19;3.10;;;1.10;;
62037;SDS011;47991;42.974;12.082;2023-03-17T04:53:45;2.40;;;1.30;;
62037;SDS011;47991;42.974;12.082;2023-03-17T04:56:12;2.70;;;1.20;;
62037;SDS011;47991;42.974;12.082;2023-03-17T04:58:38;3.30;;;1.40;;
62037;SDS011;47991;42.974;12.082;2023-03-17T05:01:04;3.10;;;1.10;;
62037;SDS011;47991;42.974;12.082;2023-03-17T05:03:32;6.80;;;1.50;;
62037;SDS011;47991;42.974;12.082;2023-03-17T05:05:58;2.90;;;1.40;;
62037;SDS011;47991;42.974;12.082;2023-03-17T05:08:26;2.70;;;1.40;;
62037;SDS011;47991;42.974;12.082;2023-03-17T05:10:53;3.40;;;1.40;;
62037;SDS011;47991;42.974;12.082;2023-03-17T05:13:21;2.50;;;1.40;;
62037;SDS011;47991;42.974;12.082;2023-03-17T05:15:51;2.80;;;1.30;;
62037;SDS011;47991;42.974;12.082;2023-03-17T05:18:19;2.70;;;1.20;;
62037;SDS011;47991;42.974;12.082;2023-03-17T05:20:47;3.30;;;1.50;;
62037;SDS011;47991;42.974;12.082;2023-03-17T05:23:13;3.60;;;1.40;;
62037;SDS011;47991;42.974;12.082;2023-03-17T05:25:39;3.50;;;1.40;;
62037;SDS011;47991;42.974;12.082;2023-03-17T05:28:07;3.10;;;1.50;;
62037;SDS011;47991;42.974;12.082;2023-03-17T05:30:34;2.80;;;1.30;;
62037;SDS011;47991;42.974;12.082;2023-03-17T05:33:01;2.80;;;1.30;;
62037;SDS011;47991;42.974;12.082;2023-03-17T05:35:28;4.00;;;1.50;;
62037;SDS011;47991;42.974;12.082;2023-03-17T05:37:54;2.90;;;1.50;;
62037;SDS011;47991;42.974;12.082;2023-03-17T05:40:21;4.30;;;1.40;;
62037;SDS011;47991;42.974;12.082;2023-03-17T05:42:49;3.70;;;1.40;;
62037;SDS011;47991;42.974;12.082;2023-03-17T05:45:16;2.10;;;1.20;;
62037;SDS011;47991;42.974;12.082;2023-03-17T05:47:43;3.50;;;1.40;;
62037;SDS011;47991;42.974;12.082;2023-03-17T05:50:10;4.30;;;1.40;;
62037;SDS011;47991;42.974;12.082;2023-03-17T05:52:37;5.00;;;1.40;;
62037;SDS011;47991;42.974;12.082;2023-03-17T05:55:04;4.00;;;1.30;;
62037;SDS011;47991;42.974;12.082;2023-03-17T05:57:30;3.00;;;1.30;;
62037;SDS011;47991;42.974;12.082;2023-03-17T05:59:56;2.80;;;1.40;;
62037;SDS011;47991;42.974;12.082;2023-03-17T06:02:23;5.20;;;1.60;;
62037;SDS011;47991;42.974;12.082;2023-03-17T06:04:49;5.30;;;1.80;;
62037;SDS011;47991;42.974;12.082;2023-03-17T06:07:15;5.30;;;2.00;;
62037;SDS011;47991;42.974;12.082;2023-03-17T06:09:42;6.00;;;2.10;;
62037;SDS011;47991;42.974;12.082;2023-03-17T06:12:08;4.40;;;1.90;;
62037;SDS011;47991;42.974;12.082;2023-03-17T06:14:35;2.40;;;1.50;;
62037;SDS011;47991;42.974;12.082;2023-03-17T06:17:01;4.80;;;1.50;;
62037;SDS011;47991;42.974;12.082;2023-03-17T06:19:27;2.90;;;1.10;;
62037;SDS011;47991;42.974;12.082;2023-03-17T06:21:53;2.80;;;1.20;;
62037;SDS011;47991;42.974;12.082;2023-03-17T06:24:19;3.00;;;1.30;;
62037;SDS011;47991;42.974;12.082;2023-03-17T06:26:45;2.80;;;1.40;;
62037;SDS011;47991;42.974;12.082;2023-03-17T06:29:11;2.50;;;1.30;;
62037;SDS011;47991;42.974;12.082;2023-03-17T06:31:38;3.20;;;1.30;;
62037;SDS011;47991;42.974;12.082;2023-03-17T06:34:05;4.70;;;1.90;;
62037;SDS011;47991;42.974;12.082;2023-03-17T06:36:31;6.00;;;3.00;;
62037;SDS011;47991;42.974;12.082;2023-03-17T06:38:58;6.50;;;2.50;;
62037;SDS011;47991;42.974;12.082;2023-03-17T06:41:25;5.80;;;2.60;;
62037;SDS011;47991;42.974;12.082;2023-03-17T06:43:51;4.70;;;2.60;;
62037;SDS011;47991;42.974;12.082;2023-03-17T06:46:18;5.00;;;2.30;;
62037;SDS011;47991;42.974;12.082;2023-03-17T06:48:44;4.00;;;1.90;;
62037;SDS011;47991;42.974;12.082;2023-03-17T06:51:10;3.70;;;1.90;;
62037;SDS011;47991;42.974;12.082;2023-03-17T06:53:36;3.70;;;1.90;;
62037;SDS011;47991;42.974;12.082;2023-03-17T06:56:02;5.10;;;1.80;;
62037;SDS011;47991;42.974;12.082;2023-03-17T06:58:30;4.10;;;1.70;;
62037;SDS011;47991;42.974;12.082;2023-03-17T07:00:56;4.00;;;1.80;;
62037;SDS011;47991;42.974;12.082;2023-03-17T07:03:23;5.20;;;1.70;;
62037;SDS011;47991;42.974;12.082;2023-03-17T07:05:50;4.40;;;1.80;;
62037;SDS011;47991;42.974;12.082;2023-03-17T07:08:17;3.10;;;1.20;;
62037;SDS011;47991;42.974;12.082;2023-03-17T07:10:44;4.00;;;2.20;;
62037;SDS011;47991;42.974;12.082;2023-03-17T07:13:13;5.10;;;2.00;;
62037;SDS011;47991;42.974;12.082;2023-03-17T07:15:39;3.90;;;1.70;;
62037;SDS011;47991;42.974;12.082;2023-03-17T07:18:07;4.50;;;1.90;;
62037;SDS011;47991;42.974;12.082;2023-03-17T07:20:33;4.90;;;1.60;;
62037;SDS011;47991;42.974;12.082;2023-03-17T07:23:00;5.90;;;1.90;;
62037;SDS011;47991;42.974;12.082;2023-03-17T07:25:26;3.60;;;1.70;;
62037;SDS011;47991;42.974;12.082;2023-03-17T07:27:53;4.70;;;1.70;;
62037;SDS011;47991;42.974;12.082;2023-03-17T07:30:19;4.60;;;1.50;;
62037;SDS011;47991;42.974;12.082;2023-03-17T07:32:45;3.60;;;1.60;;
62037;SDS011;47991;42.974;12.082;2023-03-17T07:35:13;4.20;;;1.60;;
62037;SDS011;47991;42.974;12.082;2023-03-17T07:37:40;3.90;;;1.30;;
62037;SDS011;47991;42.974;12.082;2023-03-17T07:40:07;4.20;;;1.60;;
62037;SDS011;47991;42.974;12.082;2023-03-17T07:42:35;3.00;;;1.30;;
62037;SDS011;47991;42.974;12.082;2023-03-17T07:45:01;3.70;;;1.80;;
62037;SDS011;47991;42.974;12.082;2023-03-17T07:47:29;1.40;;;1.10;;
62037;SDS011;47991;42.974;12.082;2023-03-17T07:49:55;4.20;;;1.30;;
62037;SDS011;47991;42.974;12.082;2023-03-17T07:52:22;2.90;;;1.40;;
62037;SDS011;47991;42.974;12.082;2023-03-17T07:54:48;4.80;;;1.40;;
62037;SDS011;47991;42.974;12.082;2023-03-17T07:57:16;2.80;;;1.40;;
62037;SDS011;47991;42.974;12.082;2023-03-17T07:59:42;3.50;;;1.50;;
62037;SDS011;47991;42.974;12.082;2023-03-17T08:02:15;3.70;;;1.70;;
62037;SDS011;47991;42.974;12.082;2023-03-17T08:04:43;3.80;;;1.30;;
62037;SDS011;47991;42.974;12.082;2023-03-17T08:07:09;2.40;;;1.50;;
62037;SDS011;47991;42.974;12.082;2023-03-17T08:09:37;3.60;;;1.40;;
62037;SDS011;47991;42.974;12.082;2023-03-17T08:12:04;4.50;;;1.60;;
62037;SDS011;47991;42.974;12.082;2023-03-17T08:14:31;3.30;;;1.60;;
62037;SDS011;47991;42.974;12.082;2023-03-17T08:16:57;4.90;;;1.40;;
62037;SDS011;47991;42.974;12.082;2023-03-17T08:19:23;4.00;;;1.50;;
62037;SDS011;47991;42.974;12.082;2023-03-17T08:21:49;2.80;;;1.40;;
62037;SDS011;47991;42.974;12.082;2023-03-17T08:24:16;4.20;;;1.70;;
62037;SDS011;47991;42.974;12.082;2023-03-17T08:26:46;3.90;;;1.30;;
62037;SDS011;47991;42.974;12.082;2023-03-17T08:31:40;3.80;;;1.50;;
62037;SDS011;47991;42.974;12.082;2023-03-17T08:34:07;4.30;;;1.70;;
62037;SDS011;47991;42.974;12.082;2023-03-17T08:36:33;3.40;;;1.40;;
62037;SDS011;47991;42.974;12.082;2023-03-17T08:38:59;3.40;;;1.30;;
62037;SDS011;47991;42.974;12.082;2023-03-17T08:41:26;3.30;;;1.60;;
62037;SDS011;47991;42.974;12.082;2023-03-17T08:43:53;4.70;;;1.60;;
62037;SDS011;47991;42.974;12.082;2023-03-17T08:46:23;4.40;;;2.10;;
62037;SDS011;47991;42.974;12.082;2023-03-17T08:48:55;3.60;;;1.80;;
62037;SDS011;47991;42.974;12.082;2023-03-17T08:51:25;3.90;;;1.60;;
62037;SDS011;47991;42.974;12.082;2023-03-17T08:53:53;3.20;;;1.30;;
62037;SDS011;47991;42.974;12.082;2023-03-17T08:56:20;2.40;;;1.20;;
62037;SDS011;47991;42.974;12.082;2023-03-17T08:58:47;2.40;;;1.30;;
62037;SDS011;47991;42.974;12.082;2023-03-17T09:01:15;2.40;;;1.10;;
62037;SDS011;47991;42.974;12.082;2023-03-17T09:03:42;2.30;;;1.10;;
62037;SDS011;47991;42.974;12.082;2023-03-17T09:06:10;3.80;;;1.50;;
62037;SDS011;47991;42.974;12.082;2023-03-17T09:08:37;4.20;;;1.50;;
62037;SDS011;47991;42.974;12.082;2023-03-17T09:11:06;3.50;;;1.20;;
62037;SDS011;47991;42.974;12.082;2023-03-17T09:13:34;3.30;;;1.40;;
62037;SDS011;47991;42.974;12.082;2023-03-17T09:16:02;3.60;;;1.20;;
62037;SDS011;47991;42.974;12.082;2023-03-17T09:18:28;6.20;;;1.40;;
62037;SDS011;47991;42.974;12.082;2023-03-17T09:20:56;2.30;;;1.20;;
62037;SDS011;47991;42.974;12.082;2023-03-17T09:23:22;4.70;;;1.30;;
62037;SDS011;47991;42.974;12.082;2023-03-17T09:25:48;2.60;;;1.20;;
62037;SDS011;47991;42.974;12.082;2023-03-17T09:28:16;4.00;;;1.60;;
62037;SDS011;47991;42.974;12.082;2023-03-17T09:30:42;2.40;;;1.30;;
62037;SDS011;47991;42.974;12.082;2023-03-17T09:33:08;3.30;;;1.30;;
62037;SDS011;47991;42.974;12.082;2023-03-17T09:35:36;3.00;;;1.20;;
62037;SDS011;47991;42.974;12.082;2023-03-17T09:38:03;2.50;;;1.30;;
62037;SDS011;47991;42.974;12.082;2023-03-17T09:40:30;3.00;;;1.50;;
62037;SDS011;47991;42.974;12.082;2023-03-17T09:45:37;5.30;;;1.40;;
62037;SDS011;47991;42.974;12.082;2023-03-17T09:48:16;2.70;;;1.30;;
62037;SDS011;47991;42.974;12.082;2023-03-17T09:50:58;3.70;;;1.60;;
62037;SDS011;47991;42.974;12.082;2023-03-17T09:53:33;2.60;;;1.30;;
62037;SDS011;47991;42.974;12.082;2023-03-17T09:58:32;3.80;;;1.40;;
62037;SDS011;47991;42.974;12.082;2023-03-17T10:01:00;3.20;;;1.40;;
62037;SDS011;47991;42.974;12.082;2023-03-17T10:03:29;3.90;;;1.50;;
62037;SDS011;47991;42.974;12.082;2023-03-17T10:06:07;2.10;;;1.30;;
62037;SDS011;47991;42.974;12.082;2023-03-17T10:08:48;2.30;;;1.20;;
62037;SDS011;47991;42.974;12.082;2023-03-17T10:14:10;3.10;;;1.40;;
62037;SDS011;47991;42.974;12.082;2023-03-17T10:17:34;5.00;;;1.70;;
62037;SDS011;47991;42.974;12.082;2023-03-17T10:19:56;4.10;;;1.40;;
62037;SDS011;47991;42.974;12.082;2023-03-17T10:22:39;2.50;;;1.10;;
62037;SDS011;47991;42.974;12.082;2023-03-17T10:25:21;12.00;;;2.30;;
62037;SDS011;47991;42.974;12.082;2023-03-17T10:27:54;3.20;;;1.40;;
62037;SDS011;47991;42.974;12.082;2023-03-17T10:42:47;3.60;;;1.60;;
62037;SDS011;47991;42.974;12.082;2023-03-17T10:45:31;5.50;;;1.50;;
62037;SDS011;47991;42.974;12.082;2023-03-17T10:48:01;4.40;;;1.80;;
62037;SDS011;47991;42.974;12.082;2023-03-17T10:50:30;2.40;;;1.40;;
62037;SDS011;47991;42.974;12.082;2023-03-17T10:53:00;2.20;;;1.40;;
62037;SDS011;47991;42.974;12.082;2023-03-17T10:55:42;2.50;;;1.40;;
62037;SDS011;47991;42.974;12.082;2023-03-17T10:58:19;2.70;;;1.40;;
62037;SDS011;47991;42.974;12.082;2023-03-17T11:01:13;4.00;;;1.70;;
62037;SDS011;47991;42.974;12.082;2023-03-17T11:03:42;4.40;;;1.60;;
62037;SDS011;47991;42.974;12.082;2023-03-17T11:06:12;3.80;;;1.60;;
62037;SDS011;47991;42.974;12.082;2023-03-17T11:08:51;4.80;;;1.70;;
62037;SDS011;47991;42.974;12.082;2023-03-17T11:11:27;3.00;;;1.50;;
62037;SDS011;47991;42.974;12.082;2023-03-17T11:16:38;3.40;;;1.60;;
62037;SDS011;47991;42.974;12.082;2023-03-17T11:19:14;6.80;;;2.40;;
62037;SDS011;47991;42.974;12.082;2023-03-17T11:24:24;4.70;;;1.60;;
62037;SDS011;47991;42.974;12.082;2023-03-17T11:26:59;6.90;;;2.20;;
62037;SDS011;47991;42.974;12.082;2023-03-17T11:32:32;3.40;;;1.70;;
62037;SDS011;47991;42.974;12.082;2023-03-17T11:38:22;6.30;;;1.70;;
62037;SDS011;47991;42.974;12.082;2023-03-17T11:47:19;4.80;;;1.60;;
62037;SDS011;47991;42.974;12.082;2023-03-17T11:49:58;3.40;;;1.60;;
62037;SDS011;47991;42.974;12.082;2023-03-17T11:53:03;5.30;;;1.80;;
62037;SDS011;47991;42.974;12.082;2023-03-17T11:56:09;7.10;;;2.00;;
62037;SDS011;47991;42.974;12.082;2023-03-17T11:58:52;5.80;;;1.70;;
62037;SDS011;47991;42.974;12.082;2023-03-17T12:01:34;4.20;;;1.70;;
62037;SDS011;47991;42.974;12.082;2023-03-17T12:04:16;4.10;;;1.60;;
62037;SDS011;47991;42.974;12.082;2023-03-17T12:07:06;3.90;;;1.60;;
62037;SDS011;47991;42.974;12.082;2023-03-17T12:09:46;5.40;;;1.80;;
62037;SDS011;47991;42.974;12.082;2023-03-17T12:12:30;3.80;;;1.70;;
62037;SDS011;47991;42.974;12.082;2023-03-17T12:15:03;6.40;;;2.00;;
62037;SDS011;47991;42.974;12.082;2023-03-17T12:18:00;7.80;;;2.20;;
62037;SDS011;47991;42.974;12.082;2023-03-17T12:20:38;7.20;;;3.00;;
62037;SDS011;47991;42.974;12.082;2023-03-17T12:23:16;4.80;;;2.10;;
62037;SDS011;47991;42.974;12.082;2023-03-17T12:26:11;4.50;;;2.00;;
62037;SDS011;47991;42.974;12.082;2023-03-17T12:28:57;4.90;;;2.00;;
62037;SDS011;47991;42.974;12.082;2023-03-17T12:31:35;4.90;;;2.00;;
62037;SDS011;47991;42.974;12.082;2023-03-17T12:36:53;6.40;;;2.30;;
62037;SDS011;47991;42.974;12.082;2023-03-17T12:39:25;4.80;;;1.90;;
62037;SDS011;47991;42.974;12.082;2023-03-17T12:42:00;4.80;;;1.90;;
62037;SDS011;47991;42.974;12.082;2023-03-17T12:53:46;5.20;;;1.80;;
62037;SDS011;47991;42.974;12.082;2023-03-17T12:59:01;3.90;;;1.70;;
62037;SDS011;47991;42.974;12.082;2023-03-17T13:01:36;4.80;;;1.70;;
62037;SDS011;47991;42.974;12.082;2023-03-17T13:04:30;4.60;;;1.70;;
62037;SDS011;47991;42.974;12.082;2023-03-17T13:07:09;4.40;;;1.60;;
62037;SDS011;47991;42.974;12.082;2023-03-17T13:17:47;5.20;;;2.10;;
62037;SDS011;47991;42.974;12.082;2023-03-17T13:20:15;4.50;;;1.90;;
62037;SDS011;47991;42.974;12.082;2023-03-17T13:23:08;5.30;;;1.90;;
62037;SDS011;47991;42.974;12.082;2023-03-17T13:25:47;4.80;;;2.00;;
62037;SDS011;47991;42.974;12.082;2023-03-17T13:33:34;6.30;;;2.20;;
62037;SDS011;47991;42.974;12.082;2023-03-17T13:39:37;4.60;;;2.00;;
62037;SDS011;47991;42.974;12.082;2023-03-17T13:48:22;5.60;;;2.00;;
62037;SDS011;47991;42.974;12.082;2023-03-17T13:50:55;5.50;;;2.10;;
62037;SDS011;47991;42.974;12.082;2023-03-17T13:53:47;4.40;;;2.10;;
62037;SDS011;47991;42.974;12.082;2023-03-17T13:56:22;4.50;;;2.00;;
62037;SDS011;47991;42.974;12.082;2023-03-17T13:58:52;6.10;;;2.50;;
62037;SDS011;47991;42.974;12.082;2023-03-17T14:04:29;6.10;;;2.50;;
62037;SDS011;47991;42.974;12.082;2023-03-17T14:07:12;5.90;;;2.00;;
62037;SDS011;47991;42.974;12.082;2023-03-17T14:09:43;5.40;;;2.10;;
62037;SDS011;47991;42.974;12.082;2023-03-17T14:12:11;5.80;;;2.60;;
62037;SDS011;47991;42.974;12.082;2023-03-17T14:17:40;5.40;;;2.30;;
62037;SDS011;47991;42.974;12.082;2023-03-17T14:22:47;5.40;;;2.30;;
62037;SDS011;47991;42.974;12.082;2023-03-17T14:25:23;6.70;;;2.50;;
62037;SDS011;47991;42.974;12.082;2023-03-17T14:27:52;5.20;;;1.90;;
62037;SDS011;47991;42.974;12.082;2023-03-17T14:30:21;5.00;;;2.30;;
62037;SDS011;47991;42.974;12.082;2023-03-17T14:32:55;6.00;;;2.50;;
62037;SDS011;47991;42.974;12.082;2023-03-17T14:35:37;7.60;;;2.70;;
62037;SDS011;47991;42.974;12.082;2023-03-17T14:38:23;5.90;;;2.50;;
62037;SDS011;47991;42.974;12.082;2023-03-17T14:40:58;4.70;;;1.80;;
62037;SDS011;47991;42.974;12.082;2023-03-17T14:43:32;5.30;;;2.40;;
62037;SDS011;47991;42.974;12.082;2023-03-17T14:46:02;5.50;;;2.60;;
62037;SDS011;47991;42.974;12.082;2023-03-17T14:48:36;6.40;;;2.40;;
62037;SDS011;47991;42.974;12.082;2023-03-17T14:51:11;4.70;;;2.10;;
62037;SDS011;47991;42.974;12.082;2023-03-17T14:53:41;5.10;;;2.30;;
62037;SDS011;47991;42.974;12.082;2023-03-17T14:56:14;6.40;;;2.40;;
62037;SDS011;47991;42.974;12.082;2023-03-17T14:58:51;5.70;;;2.30;;
62037;SDS011;47991;42.974;12.082;2023-03-17T15:01:22;4.70;;;2.20;;
62037;SDS011;47991;42.974;12.082;2023-03-17T15:04:47;6.00;;;2.40;;
62037;SDS011;47991;42.974;12.082;2023-03-17T15:06:50;6.10;;;2.30;;
62037;SDS011;47991;42.974;12.082;2023-03-17T15:12:04;10.60;;;5.70;;
62037;SDS011;47991;42.974;12.082;2023-03-17T15:14:43;7.20;;;2.50;;
62037;SDS011;47991;42.974;12.082;2023-03-17T15:17:19;6.60;;;2.40;;
62037;SDS011;47991;42.974;12.082;2023-03-17T15:19:53;5.40;;;2.20;;
62037;SDS011;47991;42.974;12.082;2023-03-17T15:22:39;7.30;;;2.50;;
62037;SDS011;47991;42.974;12.082;2023-03-17T15:25:18;5.60;;;2.30;;
62037;SDS011;47991;42.974;12.082;2023-03-17T15:27:48;5.10;;;2.40;;
62037;SDS011;47991;42.974;12.082;2023-03-17T15:30:17;6.40;;;2.70;;
62037;SDS011;47991;42.974;12.082;2023-03-17T15:32:52;5.00;;;2.10;;
62037;SDS011;47991;42.974;12.082;2023-03-17T15:35:28;6.60;;;2.40;;
62037;SDS011;47991;42.974;12.082;2023-03-17T15:37:56;5.10;;;2.20;;
62037;SDS011;47991;42.974;12.082;2023-03-17T15:40:25;4.60;;;2.10;;
62037;SDS011;47991;42.974;12.082;2023-03-17T15:42:51;6.10;;;2.50;;
62037;SDS011;47991;42.974;12.082;2023-03-17T15:45:22;20.70;;;13.60;;
62037;SDS011;47991;42.974;12.082;2023-03-17T15:47:48;17.80;;;11.10;;
62037;SDS011;47991;42.974;12.082;2023-03-17T15:50:23;9.10;;;4.70;;
62037;SDS011;47991;42.974;12.082;2023-03-17T15:52:54;9.50;;;3.90;;
62037;SDS011;47991;42.974;12.082;2023-03-17T15:55:27;8.00;;;3.40;;
62037;SDS011;47991;42.974;12.082;2023-03-17T15:57:57;6.40;;;2.90;;
62037;SDS011;47991;42.974;12.082;2023-03-17T16:00:24;14.40;;;9.50;;
62037;SDS011;47991;42.974;12.082;2023-03-17T16:02:54;8.40;;;4.10;;
62037;SDS011;47991;42.974;12.082;2023-03-17T16:05:28;7.00;;;3.10;;
62037;SDS011;47991;42.974;12.082;2023-03-17T16:07:57;5.50;;;2.50;;
62037;SDS011;47991;42.974;12.082;2023-03-17T16:10:26;13.50;;;7.60;;
62037;SDS011;47991;42.974;12.082;2023-03-17T16:12:57;12.30;;;7.10;;
62037;SDS011;47991;42.974;12.082;2023-03-17T16:15:24;11.50;;;5.60;;
62037;SDS011;47991;42.974;12.082;2023-03-17T16:18:00;7.50;;;3.40;;
62037;SDS011;47991;42.974;12.082;2023-03-17T16:20:30;12.70;;;6.50;;
62037;SDS011;47991;42.974;12.082;2023-03-17T16:23:14;8.70;;;3.50;;
62037;SDS011;47991;42.974;12.082;2023-03-17T16:25:47;4.20;;;1.90;;
62037;SDS011;47991;42.974;12.082;2023-03-17T16:28:17;4.20;;;1.70;;
62037;SDS011;47991;42.974;12.082;2023-03-17T16:30:49;5.80;;;1.70;;
62037;SDS011;47991;42.974;12.082;2023-03-17T16:33:21;4.40;;;1.90;;
62037;SDS011;47991;42.974;12.082;2023-03-17T16:35:48;4.00;;;1.90;;